sensor_id;sensor_type;location;lat;lon;timestamp;P1;durP1;ratioP1;P2;durP2;ratioP2
295;SDS011;132;48.770;9.200;2023-02-28T00:00:32;6.10;;;3.80;;
295;SDS011;132;48.770;9.200;2023-02-28T00:02:59;5.75;;;3.60;;
295;SDS011;132;48.770;9.200;2023-02-28T00:05:27;7.05;;;3.70;;
295;SDS011;132;48.770;9.200;2023-02-28T00:07:54;6.00;;;4.00;;
295;SDS011;132;48.770;9.200;2023-02-28T00:10:22;5.50;;;3.85;;
295;SDS011;132;48.770;9.200;2023-02-28T00:12:50;6.78;;;3.80;;
295;SDS011;132;48.770;9.200;2023-02-28T00:15:18;4.78;;;3.40;;
295;SDS011;132;48.770;9.200;2023-02-28T00:17:44;9.32;;;3.50;;
295;SDS011;132;48.770;9.200;2023-02-28T00:20:11;8.07;;;4.00;;
295;SDS011;132;48.770;9.200;2023-02-28T00:22:39;6.45;;;4.05;;
295;SDS011;132;48.770;9.200;2023-02-28T00:25:12;6.18;;;3.63;;
295;SDS011;132;48.770;9.200;2023-02-28T00:27:43;6.18;;;3.92;;
295;SDS011;132;48.770;9.200;2023-02-28T00:30:11;11.38;;;3.80;;
295;SDS011;132;48.770;9.200;2023-02-28T00:32:39;6.65;;;3.63;;
295;SDS011;132;48.770;9.200;2023-02-28T00:35:06;6.95;;;3.75;;
295;SDS011;132;48.770;9.200;2023-02-28T00:37:33;5.78;;;3.80;;
295;SDS011;132;48.770;9.200;2023-02-28T00:39:59;6.80;;;3.75;;
295;SDS011;132;48.770;9.200;2023-02-28T00:42:26;12.15;;;4.00;;
295;SDS011;132;48.770;9.200;2023-02-28T00:44:52;5.65;;;3.80;;
295;SDS011;132;48.770;9.200;2023-02-28T00:47:19;7.68;;;3.60;;
295;SDS011;132;48.770;9.200;2023-02-28T00:49:46;6.20;;;3.90;;
295;SDS011;132;48.770;9.200;2023-02-28T00:52:12;5.70;;;3.47;;
295;SDS011;132;48.770;9.200;2023-02-28T00:54:38;8.18;;;3.95;;
295;SDS011;132;48.770;9.200;2023-02-28T00:57:06;5.05;;;3.55;;
295;SDS011;132;48.770;9.200;2023-02-28T00:59:33;7.30;;;3.88;;
295;SDS011;132;48.770;9.200;2023-02-28T01:01:59;7.65;;;4.30;;
295;SDS011;132;48.770;9.200;2023-02-28T01:04:26;6.30;;;3.70;;
295;SDS011;132;48.770;9.200;2023-02-28T01:06:52;5.95;;;3.58;;
295;SDS011;132;48.770;9.200;2023-02-28T01:09:18;6.05;;;3.50;;
295;SDS011;132;48.770;9.200;2023-02-28T01:11:45;8.05;;;3.90;;
295;SDS011;132;48.770;9.200;2023-02-28T01:14:15;6.00;;;3.75;;
295;SDS011;132;48.770;9.200;2023-02-28T01:16:45;5.15;;;3.40;;
295;SDS011;132;48.770;9.200;2023-02-28T01:19:12;6.60;;;3.63;;
295;SDS011;132;48.770;9.200;2023-02-28T01:21:38;8.80;;;3.78;;
295;SDS011;132;48.770;9.200;2023-02-28T01:24:05;11.45;;;3.92;;
295;SDS011;132;48.770;9.200;2023-02-28T01:26:32;7.53;;;4.35;;
295;SDS011;132;48.770;9.200;2023-02-28T01:28:59;5.18;;;3.90;;
295;SDS011;132;48.770;9.200;2023-02-28T01:31:25;10.77;;;4.63;;
295;SDS011;132;48.770;9.200;2023-02-28T01:33:52;8.23;;;3.90;;
295;SDS011;132;48.770;9.200;2023-02-28T01:36:20;7.65;;;4.25;;
295;SDS011;132;48.770;9.200;2023-02-28T01:38:48;5.35;;;3.80;;
295;SDS011;132;48.770;9.200;2023-02-28T01:41:17;5.47;;;3.90;;
295;SDS011;132;48.770;9.200;2023-02-28T01:46:11;7.93;;;4.30;;
295;SDS011;132;48.770;9.200;2023-02-28T01:48:40;5.95;;;4.05;;
295;SDS011;132;48.770;9.200;2023-02-28T01:51:13;7.80;;;3.85;;
295;SDS011;132;48.770;9.200;2023-02-28T01:53:45;5.35;;;3.55;;
295;SDS011;132;48.770;9.200;2023-02-28T01:56:16;5.90;;;4.07;;
295;SDS011;132;48.770;9.200;2023-02-28T01:58:49;8.10;;;4.85;;
295;SDS011;132;48.770;9.200;2023-02-28T02:01:18;8.45;;;4.40;;
295;SDS011;132;48.770;9.200;2023-02-28T02:03:50;5.43;;;3.70;;
295;SDS011;132;48.770;9.200;2023-02-28T02:06:26;5.95;;;4.13;;
295;SDS011;132;48.770;9.200;2023-02-28T02:08:55;6.40;;;4.10;;
295;SDS011;132;48.770;9.200;2023-02-28T02:11:22;9.18;;;4.45;;
295;SDS011;132;48.770;9.200;2023-02-28T02:33:27;9.95;;;4.93;;
295;SDS011;132;48.770;9.200;2023-02-28T02:39:09;6.60;;;4.70;;
295;SDS011;132;48.770;9.200;2023-02-28T02:41:49;7.07;;;4.78;;
295;SDS011;132;48.770;9.200;2023-02-28T02:44:27;6.28;;;4.22;;
295;SDS011;132;48.770;9.200;2023-02-28T02:46:58;8.77;;;4.65;;
295;SDS011;132;48.770;9.200;2023-02-28T02:49:30;6.38;;;4.18;;
295;SDS011;132;48.770;9.200;2023-02-28T02:52:01;11.85;;;5.53;;
295;SDS011;132;48.770;9.200;2023-02-28T02:54:34;6.82;;;4.50;;
295;SDS011;132;48.770;9.200;2023-02-28T02:57:07;7.35;;;5.00;;
295;SDS011;132;48.770;9.200;2023-02-28T02:59:41;8.45;;;5.22;;
295;SDS011;132;48.770;9.200;2023-02-28T03:02:10;8.20;;;5.40;;
295;SDS011;132;48.770;9.200;2023-02-28T03:04:45;10.05;;;5.55;;
295;SDS011;132;48.770;9.200;2023-02-28T03:07:16;10.43;;;5.25;;
295;SDS011;132;48.770;9.200;2023-02-28T03:09:49;9.00;;;5.13;;
295;SDS011;132;48.770;9.200;2023-02-28T03:12:17;12.63;;;6.00;;
295;SDS011;132;48.770;9.200;2023-02-28T03:14:56;8.35;;;5.20;;
295;SDS011;132;48.770;9.200;2023-02-28T03:17:54;8.15;;;5.50;;
295;SDS011;132;48.770;9.200;2023-02-28T03:23:03;9.20;;;6.20;;
295;SDS011;132;48.770;9.200;2023-02-28T03:25:57;8.93;;;5.65;;
295;SDS011;132;48.770;9.200;2023-02-28T03:28:31;10.88;;;5.35;;
295;SDS011;132;48.770;9.200;2023-02-28T03:33:38;9.88;;;5.47;;
295;SDS011;132;48.770;9.200;2023-02-28T03:36:09;9.40;;;5.53;;
295;SDS011;132;48.770;9.200;2023-02-28T03:38:44;11.10;;;5.85;;
295;SDS011;132;48.770;9.200;2023-02-28T03:41:23;9.95;;;5.35;;
295;SDS011;132;48.770;9.200;2023-02-28T03:44:15;10.57;;;5.25;;
295;SDS011;132;48.770;9.200;2023-02-28T03:46:48;11.02;;;6.03;;
295;SDS011;132;48.770;9.200;2023-02-28T03:49:35;10.20;;;6.35;;
295;SDS011;132;48.770;9.200;2023-02-28T03:52:11;10.57;;;5.60;;
295;SDS011;132;48.770;9.200;2023-02-28T03:54:40;12.82;;;6.05;;
295;SDS011;132;48.770;9.200;2023-02-28T04:00:14;8.57;;;5.72;;
295;SDS011;132;48.770;9.200;2023-02-28T04:02:46;7.90;;;5.35;;
295;SDS011;132;48.770;9.200;2023-02-28T04:05:21;9.60;;;5.97;;
295;SDS011;132;48.770;9.200;2023-02-28T04:07:48;7.60;;;5.40;;
295;SDS011;132;48.770;9.200;2023-02-28T04:10:15;7.75;;;5.47;;
295;SDS011;132;48.770;9.200;2023-02-28T04:12:41;9.48;;;5.35;;
295;SDS011;132;48.770;9.200;2023-02-28T04:15:08;9.90;;;6.05;;
295;SDS011;132;48.770;9.200;2023-02-28T04:17:36;10.45;;;5.80;;
295;SDS011;132;48.770;9.200;2023-02-28T04:20:03;8.05;;;5.05;;
295;SDS011;132;48.770;9.200;2023-02-28T04:22:35;10.88;;;5.93;;
295;SDS011;132;48.770;9.200;2023-02-28T04:25:02;10.35;;;6.20;;
295;SDS011;132;48.770;9.200;2023-02-28T04:27:29;10.38;;;6.50;;
295;SDS011;132;48.770;9.200;2023-02-28T04:29:55;11.10;;;6.00;;
295;SDS011;132;48.770;9.200;2023-02-28T04:32:21;7.85;;;5.35;;
295;SDS011;132;48.770;9.200;2023-02-28T04:34:48;7.88;;;5.45;;
295;SDS011;132;48.770;9.200;2023-02-28T04:37:14;13.70;;;6.43;;
295;SDS011;132;48.770;9.200;2023-02-28T04:39:41;10.05;;;5.55;;
295;SDS011;132;48.770;9.200;2023-02-28T04:42:08;9.60;;;5.65;;
295;SDS011;132;48.770;9.200;2023-02-28T04:44:34;10.90;;;5.82;;
295;SDS011;132;48.770;9.200;2023-02-28T04:47:01;10.32;;;5.78;;
295;SDS011;132;48.770;9.200;2023-02-28T04:49:27;10.27;;;6.40;;
295;SDS011;132;48.770;9.200;2023-02-28T04:51:54;11.10;;;6.15;;
295;SDS011;132;48.770;9.200;2023-02-28T04:54:21;10.23;;;6.20;;
295;SDS011;132;48.770;9.200;2023-02-28T04:56:47;9.38;;;6.15;;
295;SDS011;132;48.770;9.200;2023-02-28T04:59:15;10.40;;;5.60;;
295;SDS011;132;48.770;9.200;2023-02-28T05:01:44;10.23;;;6.05;;
295;SDS011;132;48.770;9.200;2023-02-28T05:04:12;9.85;;;6.25;;
295;SDS011;132;48.770;9.200;2023-02-28T05:06:38;12.48;;;6.30;;
295;SDS011;132;48.770;9.200;2023-02-28T05:09:05;12.18;;;6.63;;
295;SDS011;132;48.770;9.200;2023-02-28T05:11:32;10.55;;;6.05;;
295;SDS011;132;48.770;9.200;2023-02-28T05:14:01;12.95;;;5.97;;
295;SDS011;132;48.770;9.200;2023-02-28T05:16:29;11.80;;;6.05;;
295;SDS011;132;48.770;9.200;2023-02-28T05:18:57;10.32;;;6.05;;
295;SDS011;132;48.770;9.200;2023-02-28T05:21:24;10.43;;;6.07;;
295;SDS011;132;48.770;9.200;2023-02-28T05:23:53;9.85;;;5.82;;
295;SDS011;132;48.770;9.200;2023-02-28T05:26:21;11.70;;;6.35;;
295;SDS011;132;48.770;9.200;2023-02-28T05:28:48;9.32;;;6.15;;
295;SDS011;132;48.770;9.200;2023-02-28T05:31:14;10.27;;;6.22;;
295;SDS011;132;48.770;9.200;2023-02-28T05:33:41;10.05;;;6.20;;
295;SDS011;132;48.770;9.200;2023-02-28T05:36:08;11.05;;;6.43;;
295;SDS011;132;48.770;9.200;2023-02-28T05:38:34;12.88;;;6.63;;
295;SDS011;132;48.770;9.200;2023-02-28T05:41:04;13.40;;;7.05;;
295;SDS011;132;48.770;9.200;2023-02-28T05:43:34;12.88;;;6.93;;
295;SDS011;132;48.770;9.200;2023-02-28T05:46:03;12.52;;;7.40;;
295;SDS011;132;48.770;9.200;2023-02-28T05:48:31;9.93;;;6.53;;
295;SDS011;132;48.770;9.200;2023-02-28T05:50:58;13.10;;;7.10;;
295;SDS011;132;48.770;9.200;2023-02-28T05:53:25;14.77;;;7.10;;
295;SDS011;132;48.770;9.200;2023-02-28T05:55:52;11.00;;;6.78;;
295;SDS011;132;48.770;9.200;2023-02-28T05:58:18;11.95;;;6.28;;
295;SDS011;132;48.770;9.200;2023-02-28T06:00:45;11.75;;;7.07;;
295;SDS011;132;48.770;9.200;2023-02-28T06:03:11;13.30;;;6.55;;
295;SDS011;132;48.770;9.200;2023-02-28T06:05:37;13.95;;;8.70;;
295;SDS011;132;48.770;9.200;2023-02-28T06:08:04;14.38;;;7.47;;
295;SDS011;132;48.770;9.200;2023-02-28T06:10:34;15.93;;;7.70;;
295;SDS011;132;48.770;9.200;2023-02-28T06:13:01;13.60;;;6.93;;
295;SDS011;132;48.770;9.200;2023-02-28T06:15:29;13.38;;;7.32;;
295;SDS011;132;48.770;9.200;2023-02-28T06:17:56;13.63;;;7.50;;
295;SDS011;132;48.770;9.200;2023-02-28T06:20:24;15.63;;;6.70;;
295;SDS011;132;48.770;9.200;2023-02-28T06:22:58;13.70;;;7.43;;
295;SDS011;132;48.770;9.200;2023-02-28T06:25:25;15.68;;;8.10;;
295;SDS011;132;48.770;9.200;2023-02-28T06:27:53;17.20;;;7.30;;
295;SDS011;132;48.770;9.200;2023-02-28T06:30:20;13.05;;;7.10;;
295;SDS011;132;48.770;9.200;2023-02-28T06:32:52;16.25;;;8.57;;
295;SDS011;132;48.770;9.200;2023-02-28T06:35:20;14.02;;;7.40;;
295;SDS011;132;48.770;9.200;2023-02-28T06:37:46;15.23;;;8.05;;
295;SDS011;132;48.770;9.200;2023-02-28T06:40:13;13.52;;;7.50;;
295;SDS011;132;48.770;9.200;2023-02-28T06:42:39;11.30;;;6.85;;
295;SDS011;132;48.770;9.200;2023-02-28T06:45:06;13.63;;;7.05;;
295;SDS011;132;48.770;9.200;2023-02-28T06:47:35;12.38;;;7.43;;
295;SDS011;132;48.770;9.200;2023-02-28T06:50:02;14.10;;;7.88;;
295;SDS011;132;48.770;9.200;2023-02-28T06:52:31;15.30;;;7.60;;
295;SDS011;132;48.770;9.200;2023-02-28T06:54:58;16.98;;;7.95;;
295;SDS011;132;48.770;9.200;2023-02-28T06:57:28;13.52;;;8.15;;
295;SDS011;132;48.770;9.200;2023-02-28T06:59:59;13.23;;;7.25;;
295;SDS011;132;48.770;9.200;2023-02-28T07:02:26;13.20;;;7.95;;
295;SDS011;132;48.770;9.200;2023-02-28T07:04:53;15.30;;;6.88;;
295;SDS011;132;48.770;9.200;2023-02-28T07:07:20;17.33;;;9.05;;
295;SDS011;132;48.770;9.200;2023-02-28T07:09:46;15.15;;;8.60;;
295;SDS011;132;48.770;9.200;2023-02-28T07:12:12;16.80;;;8.00;;
295;SDS011;132;48.770;9.200;2023-02-28T07:14:39;14.32;;;7.70;;
295;SDS011;132;48.770;9.200;2023-02-28T07:17:09;12.73;;;7.50;;
295;SDS011;132;48.770;9.200;2023-02-28T07:19:38;21.33;;;8.55;;
295;SDS011;132;48.770;9.200;2023-02-28T07:22:05;13.80;;;7.72;;
295;SDS011;132;48.770;9.200;2023-02-28T07:24:35;15.02;;;8.38;;
295;SDS011;132;48.770;9.200;2023-02-28T07:27:02;13.93;;;8.32;;
295;SDS011;132;48.770;9.200;2023-02-28T07:29:28;14.30;;;9.15;;
295;SDS011;132;48.770;9.200;2023-02-28T07:31:55;17.42;;;8.27;;
295;SDS011;132;48.770;9.200;2023-02-28T07:34:22;15.63;;;8.80;;
295;SDS011;132;48.770;9.200;2023-02-28T07:36:48;15.88;;;8.93;;
295;SDS011;132;48.770;9.200;2023-02-28T07:39:19;13.65;;;8.05;;
295;SDS011;132;48.770;9.200;2023-02-28T07:41:46;13.35;;;8.27;;
295;SDS011;132;48.770;9.200;2023-02-28T07:44:13;13.18;;;8.45;;
295;SDS011;132;48.770;9.200;2023-02-28T07:46:40;16.92;;;9.02;;
295;SDS011;132;48.770;9.200;2023-02-28T07:49:06;15.65;;;8.20;;
295;SDS011;132;48.770;9.200;2023-02-28T07:51:33;13.52;;;8.10;;
295;SDS011;132;48.770;9.200;2023-02-28T07:53:59;14.60;;;8.77;;
295;SDS011;132;48.770;9.200;2023-02-28T07:56:26;13.15;;;7.45;;
295;SDS011;132;48.770;9.200;2023-02-28T07:58:52;13.27;;;7.85;;
295;SDS011;132;48.770;9.200;2023-02-28T08:01:19;17.48;;;8.30;;
295;SDS011;132;48.770;9.200;2023-02-28T08:03:45;17.85;;;8.77;;
295;SDS011;132;48.770;9.200;2023-02-28T08:06:18;16.67;;;8.60;;
295;SDS011;132;48.770;9.200;2023-02-28T08:08:46;15.68;;;8.85;;
295;SDS011;132;48.770;9.200;2023-02-28T08:11:13;15.57;;;9.05;;
295;SDS011;132;48.770;9.200;2023-02-28T08:13:43;17.23;;;8.68;;
295;SDS011;132;48.770;9.200;2023-02-28T08:17:00;17.48;;;8.88;;
295;SDS011;132;48.770;9.200;2023-02-28T08:19:45;15.00;;;8.82;;
295;SDS011;132;48.770;9.200;2023-02-28T08:22:11;17.83;;;8.98;;
295;SDS011;132;48.770;9.200;2023-02-28T08:24:38;16.23;;;8.68;;
295;SDS011;132;48.770;9.200;2023-02-28T08:27:07;15.82;;;8.65;;
295;SDS011;132;48.770;9.200;2023-02-28T08:29:33;14.10;;;8.50;;
295;SDS011;132;48.770;9.200;2023-02-28T08:32:04;12.63;;;8.40;;
295;SDS011;132;48.770;9.200;2023-02-28T08:34:31;14.20;;;8.98;;
295;SDS011;132;48.770;9.200;2023-02-28T08:36:58;15.15;;;8.90;;
295;SDS011;132;48.770;9.200;2023-02-28T08:39:24;13.82;;;8.40;;
295;SDS011;132;48.770;9.200;2023-02-28T08:41:51;16.60;;;8.73;;
295;SDS011;132;48.770;9.200;2023-02-28T08:44:17;15.55;;;8.50;;
295;SDS011;132;48.770;9.200;2023-02-28T08:46:44;17.90;;;8.93;;
295;SDS011;132;48.770;9.200;2023-02-28T08:49:10;15.18;;;8.70;;
295;SDS011;132;48.770;9.200;2023-02-28T08:51:38;15.27;;;9.38;;
295;SDS011;132;48.770;9.200;2023-02-28T08:54:04;16.95;;;9.23;;
295;SDS011;132;48.770;9.200;2023-02-28T08:56:31;14.93;;;8.90;;
295;SDS011;132;48.770;9.200;2023-02-28T08:58:57;15.95;;;9.60;;
295;SDS011;132;48.770;9.200;2023-02-28T09:01:25;20.13;;;9.90;;
295;SDS011;132;48.770;9.200;2023-02-28T09:03:53;16.55;;;9.30;;
295;SDS011;132;48.770;9.200;2023-02-28T09:06:22;17.90;;;9.38;;
295;SDS011;132;48.770;9.200;2023-02-28T09:08:50;19.25;;;10.10;;
295;SDS011;132;48.770;9.200;2023-02-28T09:11:17;16.83;;;9.23;;
295;SDS011;132;48.770;9.200;2023-02-28T09:13:45;14.02;;;9.00;;
295;SDS011;132;48.770;9.200;2023-02-28T09:16:13;17.98;;;10.27;;
295;SDS011;132;48.770;9.200;2023-02-28T09:18:42;22.48;;;9.40;;
295;SDS011;132;48.770;9.200;2023-02-28T09:21:09;18.52;;;9.65;;
295;SDS011;132;48.770;9.200;2023-02-28T09:23:43;15.20;;;9.43;;
295;SDS011;132;48.770;9.200;2023-02-28T09:26:18;15.55;;;9.30;;
295;SDS011;132;48.770;9.200;2023-02-28T09:28:52;14.98;;;9.35;;
295;SDS011;132;48.770;9.200;2023-02-28T09:31:23;15.65;;;9.68;;
295;SDS011;132;48.770;9.200;2023-02-28T09:33:52;16.92;;;9.65;;
295;SDS011;132;48.770;9.200;2023-02-28T09:36:21;18.00;;;9.60;;
295;SDS011;132;48.770;9.200;2023-02-28T09:38:49;17.50;;;9.43;;
295;SDS011;132;48.770;9.200;2023-02-28T09:41:19;18.10;;;10.23;;
295;SDS011;132;48.770;9.200;2023-02-28T09:43:50;18.30;;;9.65;;
295;SDS011;132;48.770;9.200;2023-02-28T09:46:55;17.95;;;10.13;;
295;SDS011;132;48.770;9.200;2023-02-28T09:49:16;16.73;;;9.90;;
295;SDS011;132;48.770;9.200;2023-02-28T09:54:31;16.70;;;10.27;;
295;SDS011;132;48.770;9.200;2023-02-28T09:57:17;21.00;;;9.82;;
295;SDS011;132;48.770;9.200;2023-02-28T10:00:18;14.43;;;8.77;;
295;SDS011;132;48.770;9.200;2023-02-28T10:08:30;17.92;;;10.10;;
295;SDS011;132;48.770;9.200;2023-02-28T10:11:15;17.98;;;10.90;;
295;SDS011;132;48.770;9.200;2023-02-28T10:16:40;16.15;;;9.68;;
295;SDS011;132;48.770;9.200;2023-02-28T10:22:21;17.10;;;10.00;;
295;SDS011;132;48.770;9.200;2023-02-28T10:25:00;15.20;;;9.15;;
295;SDS011;132;48.770;9.200;2023-02-28T10:27:29;16.15;;;9.77;;
295;SDS011;132;48.770;9.200;2023-02-28T10:29:57;18.42;;;10.52;;
295;SDS011;132;48.770;9.200;2023-02-28T10:34:59;17.45;;;10.10;;
295;SDS011;132;48.770;9.200;2023-02-28T10:37:47;15.45;;;9.30;;
295;SDS011;132;48.770;9.200;2023-02-28T10:40:27;18.80;;;10.13;;
295;SDS011;132;48.770;9.200;2023-02-28T10:43:05;17.55;;;10.15;;
295;SDS011;132;48.770;9.200;2023-02-28T10:46:27;20.05;;;9.77;;
295;SDS011;132;48.770;9.200;2023-02-28T10:48:41;16.90;;;9.70;;
295;SDS011;132;48.770;9.200;2023-02-28T10:51:15;18.65;;;10.23;;
295;SDS011;132;48.770;9.200;2023-02-28T10:53:50;15.20;;;9.48;;
295;SDS011;132;48.770;9.200;2023-02-28T10:56:19;18.35;;;10.65;;
295;SDS011;132;48.770;9.200;2023-02-28T10:58:52;15.85;;;10.45;;
295;SDS011;132;48.770;9.200;2023-02-28T11:01:26;17.42;;;10.45;;
295;SDS011;132;48.770;9.200;2023-02-28T11:04:00;19.20;;;10.07;;
295;SDS011;132;48.770;9.200;2023-02-28T11:06:31;17.20;;;10.27;;
295;SDS011;132;48.770;9.200;2023-02-28T11:09:06;19.55;;;10.65;;
295;SDS011;132;48.770;9.200;2023-02-28T11:11:46;18.58;;;10.70;;
295;SDS011;132;48.770;9.200;2023-02-28T11:14:20;16.90;;;9.88;;
295;SDS011;132;48.770;9.200;2023-02-28T11:16:49;16.45;;;9.80;;
295;SDS011;132;48.770;9.200;2023-02-28T11:19:19;15.38;;;9.85;;
295;SDS011;132;48.770;9.200;2023-02-28T11:21:52;17.27;;;9.68;;
295;SDS011;132;48.770;9.200;2023-02-28T11:24:33;16.77;;;10.10;;
295;SDS011;132;48.770;9.200;2023-02-28T11:27:03;17.70;;;10.27;;
295;SDS011;132;48.770;9.200;2023-02-28T11:29:31;17.52;;;10.02;;
295;SDS011;132;48.770;9.200;2023-02-28T11:32:19;17.88;;;10.43;;
295;SDS011;132;48.770;9.200;2023-02-28T11:34:47;15.07;;;9.00;;
295;SDS011;132;48.770;9.200;2023-02-28T11:37:27;18.70;;;10.25;;
295;SDS011;132;48.770;9.200;2023-02-28T11:39:56;17.02;;;9.95;;
295;SDS011;132;48.770;9.200;2023-02-28T11:42:36;19.02;;;10.82;;
295;SDS011;132;48.770;9.200;2023-02-28T11:54:17;14.75;;;9.38;;
295;SDS011;132;48.770;9.200;2023-02-28T11:57:08;16.67;;;9.98;;
295;SDS011;132;48.770;9.200;2023-02-28T11:59:58;15.10;;;9.40;;
295;SDS011;132;48.770;9.200;2023-02-28T12:02:48;16.45;;;10.13;;
295;SDS011;132;48.770;9.200;2023-02-28T12:10:44;19.40;;;10.25;;
295;SDS011;132;48.770;9.200;2023-02-28T12:16:33;17.10;;;9.70;;
295;SDS011;132;48.770;9.200;2023-02-28T12:19:16;17.10;;;9.45;;
295;SDS011;132;48.770;9.200;2023-02-28T12:27:21;16.58;;;9.65;;
295;SDS011;132;48.770;9.200;2023-02-28T12:33:11;15.20;;;9.93;;
295;SDS011;132;48.770;9.200;2023-02-28T12:35:51;16.60;;;10.45;;
295;SDS011;132;48.770;9.200;2023-02-28T12:38:27;16.40;;;8.95;;
295;SDS011;132;48.770;9.200;2023-02-28T12:41:00;15.60;;;9.68;;
295;SDS011;132;48.770;9.200;2023-02-28T12:43:46;18.13;;;10.20;;
295;SDS011;132;48.770;9.200;2023-02-28T12:46:33;15.00;;;8.95;;
295;SDS011;132;48.770;9.200;2023-02-28T12:49:05;15.90;;;9.18;;
295;SDS011;132;48.770;9.200;2023-02-28T12:51:36;15.70;;;10.00;;
295;SDS011;132;48.770;9.200;2023-02-28T12:54:14;17.00;;;10.70;;
295;SDS011;132;48.770;9.200;2023-02-28T12:57:06;14.77;;;9.13;;
295;SDS011;132;48.770;9.200;2023-02-28T12:59:42;15.75;;;9.90;;
295;SDS011;132;48.770;9.200;2023-02-28T13:10:43;19.85;;;10.23;;
295;SDS011;132;48.770;9.200;2023-02-28T13:13:15;16.33;;;9.93;;
295;SDS011;132;48.770;9.200;2023-02-28T13:15:57;19.70;;;9.45;;
295;SDS011;132;48.770;9.200;2023-02-28T13:18:29;18.52;;;9.90;;
295;SDS011;132;48.770;9.200;2023-02-28T13:21:03;16.30;;;10.10;;
295;SDS011;132;48.770;9.200;2023-02-28T13:26:07;14.98;;;9.52;;
295;SDS011;132;48.770;9.200;2023-02-28T13:31:24;17.90;;;9.90;;
295;SDS011;132;48.770;9.200;2023-02-28T13:36:25;18.95;;;10.13;;
295;SDS011;132;48.770;9.200;2023-02-28T13:38:57;17.48;;;9.63;;
295;SDS011;132;48.770;9.200;2023-02-28T14:03:22;14.55;;;10.20;;
295;SDS011;132;48.770;9.200;2023-02-28T14:06:13;16.77;;;10.02;;
295;SDS011;132;48.770;9.200;2023-02-28T14:09:03;15.07;;;9.35;;
295;SDS011;132;48.770;9.200;2023-02-28T14:11:43;15.73;;;10.00;;
295;SDS011;132;48.770;9.200;2023-02-28T14:17:08;15.93;;;9.48;;
295;SDS011;132;48.770;9.200;2023-02-28T14:19:40;14.57;;;9.63;;
295;SDS011;132;48.770;9.200;2023-02-28T14:33:24;15.13;;;9.52;;
295;SDS011;132;48.770;9.200;2023-02-28T14:38:57;14.52;;;8.93;;
295;SDS011;132;48.770;9.200;2023-02-28T14:41:33;18.27;;;9.23;;
295;SDS011;132;48.770;9.200;2023-02-28T14:44:03;15.63;;;9.15;;
295;SDS011;132;48.770;9.200;2023-02-28T14:46:39;14.18;;;8.63;;
295;SDS011;132;48.770;9.200;2023-02-28T14:49:12;15.85;;;9.38;;
295;SDS011;132;48.770;9.200;2023-02-28T14:54:37;13.43;;;9.20;;
295;SDS011;132;48.770;9.200;2023-02-28T14:57:04;15.50;;;9.32;;
295;SDS011;132;48.770;9.200;2023-02-28T14:59:32;15.85;;;9.05;;
295;SDS011;132;48.770;9.200;2023-02-28T15:02:19;17.13;;;9.45;;
295;SDS011;132;48.770;9.200;2023-02-28T15:04:54;14.02;;;8.95;;
295;SDS011;132;48.770;9.200;2023-02-28T15:07:36;15.73;;;9.48;;
295;SDS011;132;48.770;9.200;2023-02-28T15:10:19;14.25;;;9.73;;
295;SDS011;132;48.770;9.200;2023-02-28T15:13:00;12.35;;;8.40;;
295;SDS011;132;48.770;9.200;2023-02-28T15:18:05;15.20;;;9.65;;
295;SDS011;132;48.770;9.200;2023-02-28T15:20:33;12.77;;;8.57;;
295;SDS011;132;48.770;9.200;2023-02-28T15:23:03;18.98;;;9.60;;
295;SDS011;132;48.770;9.200;2023-02-28T15:25:29;15.98;;;9.80;;
295;SDS011;132;48.770;9.200;2023-02-28T15:27:57;15.02;;;9.43;;
295;SDS011;132;48.770;9.200;2023-02-28T15:30:30;13.30;;;8.25;;
295;SDS011;132;48.770;9.200;2023-02-28T15:33:47;13.57;;;9.30;;
295;SDS011;132;48.770;9.200;2023-02-28T15:35:49;14.05;;;9.60;;
295;SDS011;132;48.770;9.200;2023-02-28T15:40:57;17.02;;;9.70;;
295;SDS011;132;48.770;9.200;2023-02-28T15:43:31;17.10;;;8.80;;
295;SDS011;132;48.770;9.200;2023-02-28T15:46:05;16.02;;;9.63;;
295;SDS011;132;48.770;9.200;2023-02-28T15:51:21;13.85;;;9.55;;
295;SDS011;132;48.770;9.200;2023-02-28T15:54:18;17.08;;;10.02;;
295;SDS011;132;48.770;9.200;2023-02-28T15:56:53;14.80;;;9.55;;
295;SDS011;132;48.770;9.200;2023-02-28T15:59:28;14.23;;;9.45;;
295;SDS011;132;48.770;9.200;2023-02-28T16:04:35;17.67;;;10.13;;
295;SDS011;132;48.770;9.200;2023-02-28T16:07:03;16.02;;;9.75;;
295;SDS011;132;48.770;9.200;2023-02-28T16:09:31;18.38;;;9.50;;
295;SDS011;132;48.770;9.200;2023-02-28T16:12:01;16.98;;;9.65;;
295;SDS011;132;48.770;9.200;2023-02-28T16:14:29;15.38;;;9.85;;
295;SDS011;132;48.770;9.200;2023-02-28T16:16:57;19.30;;;10.20;;
295;SDS011;132;48.770;9.200;2023-02-28T16:19:30;19.80;;;9.77;;
295;SDS011;132;48.770;9.200;2023-02-28T16:21:56;14.70;;;9.70;;
295;SDS011;132;48.770;9.200;2023-02-28T16:24:23;19.30;;;10.90;;
295;SDS011;132;48.770;9.200;2023-02-28T16:26:50;15.73;;;9.43;;
295;SDS011;132;48.770;9.200;2023-02-28T16:29:29;18.23;;;10.20;;
295;SDS011;132;48.770;9.200;2023-02-28T16:31:59;17.70;;;10.10;;
295;SDS011;132;48.770;9.200;2023-02-28T16:34:27;15.73;;;9.73;;
295;SDS011;132;48.770;9.200;2023-02-28T16:36:53;15.65;;;9.70;;
295;SDS011;132;48.770;9.200;2023-02-28T16:39:19;18.02;;;10.38;;
295;SDS011;132;48.770;9.200;2023-02-28T16:41:46;18.88;;;10.32;;
295;SDS011;132;48.770;9.200;2023-02-28T16:44:21;15.73;;;9.55;;
295;SDS011;132;48.770;9.200;2023-02-28T16:46:50;18.15;;;10.25;;
295;SDS011;132;48.770;9.200;2023-02-28T16:49:16;14.73;;;9.32;;
295;SDS011;132;48.770;9.200;2023-02-28T16:51:42;15.27;;;9.90;;
295;SDS011;132;48.770;9.200;2023-02-28T16:54:09;18.50;;;10.45;;
295;SDS011;132;48.770;9.200;2023-02-28T16:56:35;17.00;;;10.40;;
295;SDS011;132;48.770;9.200;2023-02-28T16:59:04;16.05;;;9.88;;
295;SDS011;132;48.770;9.200;2023-02-28T17:01:30;18.15;;;10.93;;
295;SDS011;132;48.770;9.200;2023-02-28T17:03:58;17.50;;;10.30;;
295;SDS011;132;48.770;9.200;2023-02-28T17:06:26;18.35;;;10.73;;
295;SDS011;132;48.770;9.200;2023-02-28T17:08:54;17.42;;;10.15;;
295;SDS011;132;48.770;9.200;2023-02-28T17:11:21;18.63;;;10.20;;
295;SDS011;132;48.770;9.200;2023-02-28T17:13:48;17.75;;;9.85;;
295;SDS011;132;48.770;9.200;2023-02-28T17:16:31;14.32;;;9.35;;
295;SDS011;132;48.770;9.200;2023-02-28T17:19:00;17.15;;;10.95;;
295;SDS011;132;48.770;9.200;2023-02-28T17:21:29;18.88;;;10.75;;
295;SDS011;132;48.770;9.200;2023-02-28T17:23:57;17.65;;;10.30;;
295;SDS011;132;48.770;9.200;2023-02-28T17:26:23;21.30;;;10.75;;
295;SDS011;132;48.770;9.200;2023-02-28T17:28:51;14.93;;;9.30;;
295;SDS011;132;48.770;9.200;2023-02-28T17:31:21;18.75;;;10.48;;
295;SDS011;132;48.770;9.200;2023-02-28T17:33:51;17.23;;;10.40;;
295;SDS011;132;48.770;9.200;2023-02-28T17:36:21;18.15;;;10.73;;
295;SDS011;132;48.770;9.200;2023-02-28T17:38:50;17.52;;;9.68;;
295;SDS011;132;48.770;9.200;2023-02-28T17:41:17;21.35;;;10.65;;
295;SDS011;132;48.770;9.200;2023-02-28T17:43:43;18.15;;;10.32;;
295;SDS011;132;48.770;9.200;2023-02-28T17:46:14;18.23;;;10.70;;
295;SDS011;132;48.770;9.200;2023-02-28T17:48:44;18.50;;;11.13;;
295;SDS011;132;48.770;9.200;2023-02-28T17:51:11;17.58;;;10.85;;
295;SDS011;132;48.770;9.200;2023-02-28T17:53:39;17.75;;;9.80;;
295;SDS011;132;48.770;9.200;2023-02-28T17:56:27;17.75;;;10.63;;
295;SDS011;132;48.770;9.200;2023-02-28T17:58:53;18.38;;;10.52;;
295;SDS011;132;48.770;9.200;2023-02-28T18:01:21;17.48;;;11.20;;
295;SDS011;132;48.770;9.200;2023-02-28T18:03:48;19.65;;;10.80;;
295;SDS011;132;48.770;9.200;2023-02-28T18:06:24;20.10;;;11.65;;
295;SDS011;132;48.770;9.200;2023-02-28T18:08:54;26.10;;;11.80;;
295;SDS011;132;48.770;9.200;2023-02-28T18:11:21;20.23;;;11.70;;
295;SDS011;132;48.770;9.200;2023-02-28T18:13:49;20.08;;;10.82;;
295;SDS011;132;48.770;9.200;2023-02-28T18:16:18;19.70;;;10.85;;
295;SDS011;132;48.770;9.200;2023-02-28T18:18:46;25.67;;;12.02;;